Terminal Aerodrome Forecast
Issued by NWS Bismarck, ND

Home | Current Version | Previous Version | Text Only | Print | Product List | Glossary On
Versions: 1 2 3 4 5 6 7 8 9 10 11 12 13 14 15 16 17 18
000
FTUS43 KBIS 241120
TAFBIS
TAF
KBIS 241120Z 2412/2512 16009KT P6SM SCT120 BKN200
     FM242100 16015KT P6SM SCT120
     FM250400 11007KT P6SM FEW110 FEW250
     FM250600 08006KT P6SM FEW110 SCT250=

USA.gov is the U.S. government's official web portal to all federal, state and local government web resources and services.